Middletown, Delaware
Current Conditions -  °F | °C
As of 12:51 AM on Tuesday 21 Oct 2014 (Local Time) from KILG Reporting Station
Broken Clouds Broken Clouds  
Wind Chill: 51°   Ceiling: 5000
Heat Index: 51°   Visibility: 10mi
Dew Point: 47°   Wind: 0mph
Humidity: 86%   Direction: NA
Pressure: 29.95"   Gusts: NA
Location:  39.45°N, 75.72°W
Report Text: KILG 210451Z 00000KT 10SM BKN050 BKN120 11/08 A2995 RMK AO2 SLP143 T01060083 401720022
Loading
Personal Weather Stations






























Interactive Weather Map New forecast layout! Learn more

10-Day Weather Forecast

Advertisements
Track Severe Weather on mobile